createdAt,value
2023-05-16T00:01:38.612Z,14.58
2023-05-16T00:04:05.919Z,14.59
2023-05-16T00:06:33.560Z,14.58
2023-05-16T00:09:00.695Z,14.60
2023-05-16T00:11:27.916Z,14.60
2023-05-16T00:13:55.196Z,14.65
2023-05-16T00:16:22.890Z,14.67
2023-05-16T00:18:50.111Z,14.69
2023-05-16T00:21:17.461Z,14.71
2023-05-16T00:23:44.741Z,14.73
2023-05-16T00:26:11.858Z,14.73
2023-05-16T00:28:39.622Z,14.71
2023-05-16T00:31:06.774Z,14.69
2023-05-16T00:33:34.436Z,14.70
2023-05-16T00:36:01.519Z,14.71
2023-05-16T00:38:28.737Z,14.73
2023-05-16T00:40:55.806Z,14.74
2023-05-16T00:43:22.824Z,14.79
2023-05-16T00:45:50.991Z,14.82
2023-05-16T00:48:18.375Z,14.82
2023-05-16T00:50:46.137Z,14.82
2023-05-16T00:53:13.205Z,14.82
2023-05-16T00:55:40.317Z,14.88
2023-05-16T00:58:08.038Z,14.96
2023-05-16T01:00:35.037Z,15.05
2023-05-16T01:03:02.203Z,15.12
2023-05-16T01:05:29.883Z,15.16
2023-05-16T01:07:57.252Z,15.21
2023-05-16T01:10:24.750Z,15.26
2023-05-16T01:13:09.857Z,15.31
2023-05-16T01:15:55.963Z,15.35
2023-05-16T01:18:31.501Z,15.39
2023-05-16T01:21:04.365Z,15.40
2023-05-16T01:23:53.793Z,15.38
2023-05-16T01:26:25.359Z,15.36
2023-05-16T01:28:52.864Z,15.35
2023-05-16T01:31:20.909Z,15.33
2023-05-16T01:33:48.228Z,15.32
2023-05-16T01:36:24.406Z,15.32
2023-05-16T01:39:28.579Z,15.33
2023-05-16T01:42:08.200Z,15.35
2023-05-16T01:44:53.983Z,15.33
2023-05-16T01:47:21.613Z,15.34
2023-05-16T01:49:57.648Z,15.33
2023-05-16T01:52:31.564Z,15.31
2023-05-16T01:54:58.780Z,15.32
2023-05-16T01:57:26.915Z,15.34
2023-05-16T01:59:54.076Z,15.35
2023-05-16T02:02:21.258Z,15.37
2023-05-16T02:04:48.378Z,15.35
2023-05-16T02:07:15.792Z,15.37
2023-05-16T02:09:45.313Z,15.38
2023-05-16T02:12:12.390Z,15.40
2023-05-16T02:14:39.486Z,15.41
2023-05-16T02:17:07.109Z,15.42
2023-05-16T02:19:34.186Z,15.43
2023-05-16T02:22:01.249Z,15.44
2023-05-16T02:24:28.385Z,15.45
2023-05-16T02:26:55.970Z,15.46
2023-05-16T02:29:23.120Z,15.50
2023-05-16T02:31:50.140Z,15.53
2023-05-16T02:34:17.186Z,15.55
2023-05-16T02:36:44.335Z,15.54
2023-05-16T02:39:11.588Z,15.53
2023-05-16T02:41:39.059Z,15.54
2023-05-16T02:44:06.308Z,15.55
2023-05-16T02:46:37.001Z,15.56
2023-05-16T02:49:04.178Z,15.56
2023-05-16T02:51:31.694Z,15.57
2023-05-16T02:54:00.081Z,15.59
2023-05-16T02:56:27.886Z,15.60
2023-05-16T02:58:55.041Z,15.64
2023-05-16T03:01:22.314Z,15.65
2023-05-16T03:03:49.496Z,15.67
2023-05-16T03:06:16.754Z,15.70
2023-05-16T03:08:43.829Z,15.70
2023-05-16T03:11:10.879Z,15.71
2023-05-16T03:13:38.028Z,15.71
2023-05-16T03:16:06.239Z,15.70
2023-05-16T03:18:33.578Z,15.71
2023-05-16T03:21:01.728Z,15.73
2023-05-16T03:23:28.957Z,15.75
2023-05-16T03:25:56.428Z,15.76
2023-05-16T03:28:23.484Z,15.77
2023-05-16T03:30:50.658Z,15.78
2023-05-16T03:33:18.798Z,15.81
2023-05-16T03:35:46.362Z,15.84
2023-05-16T03:38:13.741Z,15.89
2023-05-16T03:40:44.923Z,15.94
2023-05-16T03:43:12.272Z,15.98
2023-05-16T03:45:40.685Z,16.00
2023-05-16T03:48:09.275Z,16.03
2023-05-16T03:50:39.474Z,16.07
2023-05-16T03:53:08.186Z,16.11
2023-05-16T03:55:35.388Z,16.15
2023-05-16T03:58:02.471Z,16.22
2023-05-16T04:00:29.858Z,16.27
2023-05-16T04:02:57.035Z,16.30
2023-05-16T04:05:24.222Z,16.33
2023-05-16T04:07:52.493Z,16.38
2023-05-16T04:10:19.789Z,16.43
2023-05-16T04:12:46.921Z,16.48
2023-05-16T04:15:14.097Z,16.52
2023-05-16T04:17:41.342Z,16.59
2023-05-16T04:20:09.894Z,16.66
2023-05-16T04:22:36.963Z,16.72
2023-05-16T04:25:04.734Z,16.78
2023-05-16T04:27:31.797Z,16.87
2023-05-16T04:30:00.339Z,16.91
2023-05-16T04:32:29.283Z,16.93
2023-05-16T04:34:57.391Z,16.95
2023-05-16T04:37:25.204Z,16.96
2023-05-16T04:39:54.893Z,16.98
2023-05-16T04:42:22.420Z,17.01
2023-05-16T04:44:50.472Z,17.08
2023-05-16T04:47:17.710Z,17.09
2023-05-16T04:49:45.014Z,17.11
2023-05-16T04:52:12.255Z,17.13
2023-05-16T04:54:39.913Z,17.13
2023-05-16T04:57:06.987Z,17.16
2023-05-16T04:59:34.137Z,17.15
2023-05-16T05:02:01.244Z,17.14
2023-05-16T05:04:28.684Z,17.16
2023-05-16T05:06:56.167Z,17.18
2023-05-16T05:09:23.752Z,17.20
2023-05-16T05:11:51.406Z,17.24
2023-05-16T05:14:19.353Z,17.27
2023-05-16T05:16:46.969Z,17.30
2023-05-16T05:19:14.807Z,17.33
2023-05-16T05:21:42.906Z,17.37
2023-05-16T05:24:11.634Z,17.43
2023-05-16T05:26:38.854Z,17.46
2023-05-16T05:29:06.483Z,17.48
2023-05-16T05:31:35.195Z,17.52
2023-05-16T05:34:03.477Z,17.57
2023-05-16T05:36:31.318Z,17.61
2023-05-16T05:38:58.446Z,17.65
2023-05-16T05:41:26.588Z,17.69
2023-05-16T05:43:53.801Z,17.75
2023-05-16T05:46:20.981Z,17.81
2023-05-16T05:48:48.258Z,17.85
2023-05-16T05:51:15.356Z,17.85
2023-05-16T05:53:42.844Z,17.83
2023-05-16T05:56:10.002Z,17.82
2023-05-16T05:58:37.160Z,17.80
2023-05-16T06:01:04.282Z,17.84
2023-05-16T06:03:32.167Z,17.93
2023-05-16T06:05:59.435Z,18.08
2023-05-16T06:08:26.733Z,18.20
2023-05-16T06:10:54.460Z,18.31
2023-05-16T06:13:21.756Z,18.48
2023-05-16T06:15:53.266Z,18.70
2023-05-16T06:18:21.222Z,18.96
2023-05-16T06:20:48.360Z,19.19
2023-05-16T06:23:15.614Z,19.37
2023-05-16T06:25:42.701Z,19.47
2023-05-16T06:28:09.899Z,19.56
2023-05-16T06:30:37.269Z,19.66
2023-05-16T06:33:04.572Z,19.77
2023-05-16T06:35:31.885Z,19.81
2023-05-16T06:37:59.266Z,19.85
2023-05-16T06:40:26.373Z,19.91
2023-05-16T06:42:58.702Z,20.03
2023-05-16T06:45:26.916Z,20.18
2023-05-16T06:47:57.279Z,20.32
2023-05-16T06:50:25.092Z,20.49
2023-05-16T06:52:52.386Z,20.72
2023-05-16T06:55:20.357Z,20.95
2023-05-16T06:57:48.342Z,21.11
2023-05-16T07:00:16.428Z,21.23
2023-05-16T07:02:43.845Z,21.32
2023-05-16T07:05:11.184Z,21.40
2023-05-16T07:07:38.436Z,21.43
2023-05-16T07:10:06.178Z,21.42
2023-05-16T07:12:33.648Z,21.40
2023-05-16T07:15:00.932Z,21.41
2023-05-16T07:17:28.087Z,21.44
2023-05-16T07:19:55.498Z,21.48
2023-05-16T07:22:22.636Z,21.49
2023-05-16T07:24:49.795Z,21.47
2023-05-16T07:27:16.937Z,21.47
2023-05-16T07:29:44.612Z,21.53
2023-05-16T07:32:14.301Z,21.57
2023-05-16T07:34:41.418Z,21.56
2023-05-16T07:37:13.208Z,21.57
2023-05-16T07:39:41.057Z,21.54
2023-05-16T07:42:09.907Z,21.53
2023-05-16T07:44:37.130Z,21.54
2023-05-16T07:47:04.377Z,21.58
2023-05-16T07:49:31.629Z,21.63
2023-05-16T07:51:58.710Z,21.66
2023-05-16T07:54:25.792Z,21.71
2023-05-16T07:56:52.871Z,21.80
2023-05-16T07:59:21.077Z,21.89
2023-05-16T08:01:48.217Z,21.99
2023-05-16T08:04:15.334Z,22.09
2023-05-16T08:06:42.390Z,22.15
2023-05-16T08:09:09.585Z,22.18
2023-05-16T08:11:37.105Z,22.21
2023-05-16T08:14:04.374Z,22.25
2023-05-16T08:16:31.956Z,22.32
2023-05-16T08:18:59.167Z,22.38
2023-05-16T08:21:27.115Z,22.44
2023-05-16T08:23:54.456Z,22.50
2023-05-16T08:26:22.274Z,22.58
2023-05-16T08:28:50.118Z,22.62
2023-05-16T08:31:17.278Z,22.59
2023-05-16T08:33:44.516Z,22.56
2023-05-16T08:36:11.549Z,22.59
2023-05-16T08:38:38.683Z,22.64
2023-05-16T08:41:06.505Z,22.69
2023-05-16T08:43:35.347Z,22.76
2023-05-16T08:46:02.500Z,22.80
2023-05-16T08:48:29.591Z,22.81
2023-05-16T08:50:56.688Z,22.82
2023-05-16T08:53:27.900Z,22.89
2023-05-16T08:55:55.348Z,23.00
2023-05-16T08:58:22.396Z,23.10
2023-05-16T09:00:49.616Z,23.18
2023-05-16T09:03:17.344Z,23.24
2023-05-16T09:05:44.595Z,23.28
2023-05-16T09:08:12.029Z,23.29
2023-05-16T09:10:39.113Z,23.27
2023-05-16T09:13:06.296Z,23.28
2023-05-16T09:15:33.830Z,23.31
2023-05-16T09:18:01.667Z,23.31
2023-05-16T09:20:28.874Z,23.19
2023-05-16T09:22:57.181Z,23.06
2023-05-16T09:25:30.205Z,22.94
2023-05-16T09:27:59.511Z,22.81
2023-05-16T09:30:34.267Z,22.72
2023-05-16T09:33:02.360Z,22.62
2023-05-16T09:38:00.049Z,22.39
2023-05-16T09:40:27.235Z,22.37
2023-05-16T09:43:07.368Z,22.43
2023-05-16T09:45:35.609Z,22.50
2023-05-16T09:48:08.811Z,22.57
2023-05-16T09:50:37.273Z,22.60
2023-05-16T09:53:04.817Z,22.60
2023-05-16T09:55:32.588Z,22.61
2023-05-16T09:58:01.123Z,22.66
2023-05-16T10:00:32.571Z,22.72
2023-05-16T10:03:04.811Z,22.75
2023-05-16T10:05:33.530Z,22.66
2023-05-16T10:08:01.552Z,22.56
2023-05-16T10:10:29.050Z,22.46
2023-05-16T10:12:56.748Z,22.43
2023-05-16T10:15:24.659Z,22.41
2023-05-16T10:17:53.556Z,22.41
2023-05-16T10:20:21.801Z,22.39
2023-05-16T10:22:53.142Z,22.38
2023-05-16T10:25:30.512Z,22.40
2023-05-16T10:27:58.773Z,22.43
2023-05-16T10:30:26.108Z,22.48
2023-05-16T10:32:53.194Z,22.52
2023-05-16T10:35:21.069Z,22.52
2023-05-16T10:37:49.188Z,22.46
2023-05-16T10:40:17.218Z,22.40
2023-05-16T10:43:04.139Z,22.39
2023-05-16T10:45:31.602Z,22.39
2023-05-16T10:47:59.902Z,22.38
2023-05-16T10:50:39.343Z,22.36
2023-05-16T10:53:33.440Z,22.37
2023-05-16T10:56:10.989Z,22.40
2023-05-16T10:58:41.052Z,22.42
2023-05-16T11:01:27.898Z,22.42
2023-05-16T11:04:02.319Z,22.39
2023-05-16T11:06:33.563Z,22.29
2023-05-16T11:09:10.900Z,22.20
2023-05-16T11:11:47.988Z,22.17
2023-05-16T11:14:23.419Z,22.17
2023-05-16T11:16:52.177Z,22.17
2023-05-16T11:19:34.007Z,22.18
2023-05-16T11:22:20.208Z,22.18
2023-05-16T11:25:07.561Z,22.23
2023-05-16T11:27:45.315Z,22.39
2023-05-16T11:30:17.895Z,22.56
2023-05-16T11:32:45.931Z,22.66
2023-05-16T11:35:15.200Z,22.72
2023-05-16T11:37:44.219Z,22.78
2023-05-16T11:40:14.559Z,22.88
2023-05-16T11:42:44.778Z,22.99
2023-05-16T11:45:13.117Z,23.09
2023-05-16T11:47:40.846Z,23.14
2023-05-16T11:50:12.086Z,23.20
2023-05-16T11:52:44.010Z,23.27
2023-05-16T11:55:11.681Z,23.31
2023-05-16T11:57:39.917Z,23.33
2023-05-16T12:00:18.605Z,23.35
2023-05-16T12:02:56.092Z,23.32
2023-05-16T12:05:27.478Z,23.24
2023-05-16T12:07:55.558Z,23.20
2023-05-16T12:10:23.155Z,23.16
2023-05-16T12:12:53.038Z,23.21
2023-05-16T12:15:21.930Z,23.31
2023-05-16T12:17:49.245Z,23.45
2023-05-16T12:20:16.797Z,23.61
2023-05-16T12:22:45.755Z,23.77
2023-05-16T12:25:28.667Z,23.95
2023-05-16T12:27:57.610Z,24.12
2023-05-16T12:30:26.536Z,24.21
2023-05-16T12:33:01.220Z,24.31
2023-05-16T12:35:33.967Z,24.43
2023-05-16T12:38:05.011Z,24.60
2023-05-16T12:40:32.720Z,24.79
2023-05-16T12:43:00.302Z,25.00
2023-05-16T12:45:28.447Z,25.16
2023-05-16T12:47:55.824Z,25.31
2023-05-16T12:50:23.271Z,25.47
2023-05-16T12:52:53.754Z,25.62
2023-05-16T12:55:21.411Z,25.76
2023-05-16T12:57:49.197Z,25.89
2023-05-16T13:00:19.303Z,26.04
2023-05-16T13:02:47.311Z,26.24
2023-05-16T13:05:14.864Z,26.51
2023-05-16T13:07:42.055Z,26.79
2023-05-16T13:10:11.012Z,27.10
2023-05-16T13:12:39.420Z,27.36
2023-05-16T13:15:10.758Z,27.54
2023-05-16T13:17:39.202Z,27.70
2023-05-16T13:20:10.525Z,27.74
2023-05-16T13:22:37.929Z,27.61
2023-05-16T13:25:06.578Z,27.29
2023-05-16T13:27:34.388Z,26.96
2023-05-16T13:30:01.585Z,26.77
2023-05-16T13:32:28.841Z,26.85
2023-05-16T13:34:57.273Z,27.09
2023-05-16T13:37:27.521Z,27.44
2023-05-16T13:39:57.556Z,27.77
2023-05-16T13:42:24.755Z,28.09
2023-05-16T13:44:52.354Z,28.31
2023-05-16T13:47:20.080Z,28.53
2023-05-16T13:49:47.820Z,28.83
2023-05-16T13:52:15.081Z,29.06
2023-05-16T13:54:45.522Z,29.30
2023-05-16T13:57:12.621Z,29.48
2023-05-16T14:02:09.766Z,29.67
2023-05-16T14:04:37.306Z,29.81
2023-05-16T14:07:04.658Z,30.02
2023-05-16T14:09:32.171Z,30.15
2023-05-16T14:11:59.507Z,30.22
2023-05-16T14:14:26.925Z,30.23
2023-05-16T14:16:54.290Z,30.30
2023-05-16T14:19:21.926Z,30.45
2023-05-16T14:21:49.382Z,30.58
2023-05-16T14:24:16.450Z,30.73
2023-05-16T14:26:43.578Z,30.85
2023-05-16T14:29:10.809Z,30.86
2023-05-16T14:31:38.325Z,30.83
2023-05-16T14:34:05.435Z,30.97
2023-05-16T14:36:32.497Z,31.13
2023-05-16T14:38:59.802Z,31.22
2023-05-16T14:41:27.710Z,31.21
2023-05-16T14:43:56.382Z,31.21
2023-05-16T14:46:23.527Z,31.24
2023-05-16T14:48:51.417Z,31.34
2023-05-16T14:51:19.069Z,31.40
2023-05-16T14:53:47.858Z,31.37
2023-05-16T14:56:15.593Z,31.35
2023-05-16T14:58:46.254Z,31.35
2023-05-16T15:01:15.517Z,31.29
2023-05-16T15:03:54.560Z,31.25
2023-05-16T15:06:23.040Z,31.12
2023-05-16T15:08:50.355Z,30.86
2023-05-16T15:11:17.598Z,30.27
2023-05-16T15:13:44.699Z,29.31
2023-05-16T15:16:12.371Z,28.44
2023-05-16T15:18:40.671Z,27.61
2023-05-16T15:21:08.762Z,26.80
2023-05-16T15:23:36.683Z,26.10
2023-05-16T15:26:04.500Z,25.51
2023-05-16T15:28:31.739Z,25.04
2023-05-16T15:30:59.169Z,24.62
2023-05-16T15:33:26.617Z,24.20
2023-05-16T15:35:53.794Z,23.80
2023-05-16T15:38:20.918Z,23.50
2023-05-16T15:40:50.773Z,23.26
2023-05-16T15:43:25.287Z,22.95
2023-05-16T15:45:52.853Z,22.68
2023-05-16T15:48:20.944Z,22.44
2023-05-16T15:50:48.351Z,22.21
2023-05-16T15:53:16.113Z,22.01
2023-05-16T15:55:43.362Z,21.83
2023-05-16T15:58:10.516Z,21.70
2023-05-16T16:00:41.418Z,21.55
2023-05-16T16:03:10.303Z,21.39
2023-05-16T16:05:37.600Z,21.30
2023-05-16T16:08:05.498Z,21.23
2023-05-16T16:10:33.715Z,21.14
2023-05-16T16:13:02.187Z,21.07
2023-05-16T16:15:32.801Z,20.97
2023-05-16T16:18:00.998Z,20.89
2023-05-16T16:20:28.753Z,20.80
2023-05-16T16:22:59.556Z,20.71
2023-05-16T16:25:27.261Z,20.66
2023-05-16T16:27:55.126Z,20.60
2023-05-16T16:30:24.487Z,20.53
2023-05-16T16:32:52.073Z,20.46
2023-05-16T16:35:19.827Z,20.42
2023-05-16T16:38:02.468Z,20.39
2023-05-16T16:40:33.837Z,20.34
2023-05-16T16:43:01.664Z,20.29
2023-05-16T16:45:29.383Z,20.23
2023-05-16T16:47:57.992Z,20.19
2023-05-16T16:50:25.277Z,20.12
2023-05-16T16:52:55.476Z,20.00
2023-05-16T16:55:22.709Z,19.88
2023-05-16T16:57:49.878Z,19.70
2023-05-16T17:00:17.595Z,19.51
2023-05-16T17:02:45.341Z,19.34
2023-05-16T17:05:14.123Z,19.18
2023-05-16T17:07:43.079Z,19.00
2023-05-16T17:10:10.542Z,18.83
2023-05-16T17:12:44.776Z,18.68
2023-05-16T17:15:12.803Z,18.53
2023-05-16T17:17:40.098Z,18.41
2023-05-16T17:20:08.021Z,18.30
2023-05-16T17:22:35.127Z,18.18
2023-05-16T17:25:03.768Z,18.06
2023-05-16T17:27:31.040Z,17.96
2023-05-16T17:29:58.257Z,17.87
2023-05-16T17:32:26.044Z,17.79
2023-05-16T17:34:54.568Z,17.71
2023-05-16T17:37:23.280Z,17.64
2023-05-16T17:39:50.731Z,17.58
2023-05-16T17:42:17.827Z,17.52
2023-05-16T17:44:44.922Z,17.47
2023-05-16T17:47:12.026Z,17.43
2023-05-16T17:49:39.440Z,17.37
2023-05-16T17:52:07.042Z,17.31
2023-05-16T17:54:34.190Z,17.24
2023-05-16T17:57:01.695Z,17.18
2023-05-16T17:59:28.767Z,17.14
2023-05-16T18:01:57.553Z,17.09
2023-05-16T18:04:24.879Z,17.03
2023-05-16T18:06:55.742Z,16.98
2023-05-16T18:09:22.739Z,16.93
2023-05-16T18:11:50.650Z,16.87
2023-05-16T18:14:18.003Z,16.81
2023-05-16T18:16:45.140Z,16.76
2023-05-16T18:19:12.796Z,16.71
2023-05-16T18:21:40.187Z,16.68
2023-05-16T18:24:08.776Z,16.68
2023-05-16T18:26:36.357Z,16.68
2023-05-16T18:29:04.207Z,16.66
2023-05-16T18:31:33.752Z,16.64
2023-05-16T18:34:03.869Z,16.58
2023-05-16T18:36:31.374Z,16.54
2023-05-16T18:38:58.451Z,16.50
2023-05-16T18:41:26.145Z,16.45
2023-05-16T18:43:53.419Z,16.42
2023-05-16T18:46:20.826Z,16.39
2023-05-16T18:48:47.958Z,16.36
2023-05-16T18:51:15.038Z,16.33
2023-05-16T18:53:42.251Z,16.33
2023-05-16T18:56:09.344Z,16.31
2023-05-16T18:58:37.177Z,16.28
2023-05-16T19:01:04.925Z,16.27
2023-05-16T19:03:32.790Z,16.25
2023-05-16T19:06:01.195Z,16.25
2023-05-16T19:08:40.437Z,16.23
2023-05-16T19:11:17.096Z,16.21
2023-05-16T19:13:47.754Z,16.19
2023-05-16T19:16:15.197Z,16.16
2023-05-16T19:18:42.841Z,16.13
2023-05-16T19:21:11.163Z,16.10
2023-05-16T19:23:38.317Z,16.08
2023-05-16T19:26:05.472Z,16.07
2023-05-16T19:28:33.579Z,16.05
2023-05-16T19:31:00.952Z,16.03
2023-05-16T19:33:28.115Z,16.00
2023-05-16T19:35:58.897Z,15.97
2023-05-16T19:38:26.660Z,15.93
2023-05-16T19:40:54.368Z,15.89
2023-05-16T19:43:22.153Z,15.86
2023-05-16T19:45:49.797Z,15.84
2023-05-16T19:48:16.916Z,15.83
2023-05-16T19:50:44.141Z,15.81
2023-05-16T19:53:11.176Z,15.79
2023-05-16T19:55:38.361Z,15.79
2023-05-16T19:58:05.646Z,15.80
2023-05-16T20:00:32.799Z,15.80
2023-05-16T20:03:00.002Z,15.80
2023-05-16T20:05:27.629Z,15.80
2023-05-16T20:07:55.546Z,15.79
2023-05-16T20:10:22.720Z,15.79
2023-05-16T20:12:49.871Z,15.78
2023-05-16T20:15:17.808Z,15.79
2023-05-16T20:17:46.504Z,15.79
2023-05-16T20:20:13.646Z,15.80
2023-05-16T20:22:41.951Z,15.82
2023-05-16T20:25:10.120Z,15.82
2023-05-16T20:27:37.798Z,15.82
2023-05-16T20:30:07.007Z,15.82
2023-05-16T20:32:34.423Z,15.81
2023-05-16T20:35:04.445Z,15.82
2023-05-16T20:37:31.538Z,15.82
2023-05-16T20:39:58.667Z,15.82
2023-05-16T20:42:25.831Z,15.82
2023-05-16T20:44:52.891Z,15.83
2023-05-16T20:47:19.998Z,15.83
2023-05-16T20:49:48.707Z,15.83
2023-05-16T20:52:19.892Z,15.83
2023-05-16T20:54:50.308Z,15.88
2023-05-16T20:57:17.995Z,15.86
2023-05-16T20:59:45.135Z,15.84
2023-05-16T21:02:12.405Z,15.84
2023-05-16T21:04:39.596Z,15.87
2023-05-16T21:07:08.435Z,15.88
2023-05-16T21:09:37.161Z,15.88
2023-05-16T21:12:04.732Z,15.88
2023-05-16T21:14:31.768Z,15.89
2023-05-16T21:16:58.951Z,15.90
2023-05-16T21:19:26.070Z,15.93
2023-05-16T21:21:53.183Z,15.96
2023-05-16T21:24:20.235Z,15.96
2023-05-16T21:26:47.292Z,15.96
2023-05-16T21:29:16.081Z,15.96
2023-05-16T21:31:44.702Z,15.97
2023-05-16T21:34:12.126Z,15.95
2023-05-16T21:36:39.230Z,15.89
2023-05-16T21:39:06.406Z,15.87
2023-05-16T21:41:33.432Z,15.85
2023-05-16T21:44:00.495Z,15.83
2023-05-16T21:46:27.722Z,15.82
2023-05-16T21:48:54.986Z,15.81
2023-05-16T21:51:21.990Z,15.78
2023-05-16T21:53:49.062Z,15.78
2023-05-16T21:56:16.116Z,15.77
2023-05-16T21:58:43.252Z,15.78
2023-05-16T22:01:10.478Z,15.80
2023-05-16T22:03:37.583Z,15.79
2023-05-16T22:06:05.085Z,15.79
2023-05-16T22:08:32.616Z,15.79
2023-05-16T22:10:59.651Z,15.81
2023-05-16T22:13:26.669Z,15.82
2023-05-16T22:16:03.914Z,15.81
2023-05-16T22:18:32.608Z,15.81
2023-05-16T22:21:00.265Z,15.82
2023-05-16T22:23:27.907Z,15.79
2023-05-16T22:25:55.845Z,15.80
2023-05-16T22:28:23.334Z,15.73
2023-05-16T22:30:50.725Z,15.71
2023-05-16T22:33:18.511Z,15.72
2023-05-16T22:35:45.684Z,15.70
2023-05-16T22:38:13.757Z,15.68
2023-05-16T22:40:44.054Z,15.68
2023-05-16T22:43:12.131Z,15.67
2023-05-16T22:45:39.997Z,15.65
2023-05-16T22:48:07.811Z,15.63
2023-05-16T22:50:35.342Z,15.58
2023-05-16T22:53:02.639Z,15.53
2023-05-16T22:55:29.909Z,15.47
2023-05-16T22:58:00.708Z,15.43
2023-05-16T23:00:27.826Z,15.39
2023-05-16T23:02:55.324Z,15.34
2023-05-16T23:05:24.276Z,15.30
2023-05-16T23:07:51.990Z,15.26
2023-05-16T23:10:19.568Z,15.22
2023-05-16T23:12:46.668Z,15.17
2023-05-16T23:15:13.893Z,15.13
2023-05-16T23:17:41.129Z,15.11
2023-05-16T23:20:08.667Z,15.07
2023-05-16T23:22:36.079Z,15.01
2023-05-16T23:25:03.270Z,14.95
2023-05-16T23:27:31.909Z,14.89
2023-05-16T23:29:58.994Z,14.86
2023-05-16T23:32:26.566Z,14.82
2023-05-16T23:34:53.781Z,14.76
2023-05-16T23:37:21.151Z,14.74
2023-05-16T23:39:48.165Z,14.73
2023-05-16T23:42:15.401Z,14.70
2023-05-16T23:44:42.788Z,14.68
2023-05-16T23:47:09.995Z,14.67
2023-05-16T23:49:37.111Z,14.64
2023-05-16T23:52:06.109Z,14.60
2023-05-16T23:54:33.849Z,14.56
2023-05-16T23:57:01.177Z,14.56
2023-05-16T23:59:28.499Z,14.54
